sensor_id;sensor_type;location;lat;lon;timestamp;pressure;altitude;pressure_sealevel;temperature;humidity
9225;BME280;4647;48.072;11.616;2023-04-06T00:00:07;95469.91;;;-2.56;75.67
9225;BME280;4647;48.072;11.616;2023-04-06T00:02:37;95466.34;;;-2.60;75.92
9225;BME280;4647;48.072;11.616;2023-04-06T00:05:08;95464.94;;;-2.58;75.59
9225;BME280;4647;48.072;11.616;2023-04-06T00:07:36;95459.16;;;-2.60;75.50
9225;BME280;4647;48.072;11.616;2023-04-06T00:10:06;95465.97;;;-2.50;75.33
9225;BME280;4647;48.072;11.616;2023-04-06T00:12:35;95459.09;;;-2.51;75.34
9225;BME280;4647;48.072;11.616;2023-04-06T00:15:05;95453.88;;;-2.60;75.42
9225;BME280;4647;48.072;11.616;2023-04-06T00:17:33;95456.88;;;-2.70;76.02
9225;BME280;4647;48.072;11.616;2023-04-06T00:20:02;95451.13;;;-2.72;76.05
9225;BME280;4647;48.072;11.616;2023-04-06T00:22:34;95451.44;;;-2.73;76.29
9225;BME280;4647;48.072;11.616;2023-04-06T00:25:03;95447.50;;;-2.67;75.82
9225;BME280;4647;48.072;11.616;2023-04-06T00:27:33;95450.16;;;-2.67;75.72
9225;BME280;4647;48.072;11.616;2023-04-06T00:30:01;95448.66;;;-2.86;77.07
9225;BME280;4647;48.072;11.616;2023-04-06T00:32:30;95450.53;;;-2.86;76.91
9225;BME280;4647;48.072;11.616;2023-04-06T00:34:58;95450.53;;;-2.86;76.79
9225;BME280;4647;48.072;11.616;2023-04-06T00:37:27;95455.44;;;-2.97;76.78
9225;BME280;4647;48.072;11.616;2023-04-06T00:39:58;95453.44;;;-3.00;77.25
9225;BME280;4647;48.072;11.616;2023-04-06T00:42:27;95440.78;;;-2.94;76.79
9225;BME280;4647;48.072;11.616;2023-04-06T00:44:57;95450.06;;;-2.80;76.46
9225;BME280;4647;48.072;11.616;2023-04-06T00:47:27;95449.16;;;-2.84;76.32
9225;BME280;4647;48.072;11.616;2023-04-06T00:49:56;95435.66;;;-2.99;76.48
9225;BME280;4647;48.072;11.616;2023-04-06T00:52:24;95455.06;;;-2.87;76.55
9225;BME280;4647;48.072;11.616;2023-04-06T00:54:53;95452.28;;;-2.90;76.53
9225;BME280;4647;48.072;11.616;2023-04-06T00:57:25;95438.44;;;-2.96;76.73
9225;BME280;4647;48.072;11.616;2023-04-06T00:59:54;95442.78;;;-2.91;76.72
9225;BME280;4647;48.072;11.616;2023-04-06T01:02:23;95453.56;;;-2.96;76.85
9225;BME280;4647;48.072;11.616;2023-04-06T01:04:52;95451.31;;;-2.86;76.60
9225;BME280;4647;48.072;11.616;2023-04-06T01:07:20;95449.44;;;-2.85;76.39
9225;BME280;4647;48.072;11.616;2023-04-06T01:09:50;95451.81;;;-2.92;76.62
9225;BME280;4647;48.072;11.616;2023-04-06T01:12:18;95450.72;;;-2.91;76.60
9225;BME280;4647;48.072;11.616;2023-04-06T01:14:49;95447.91;;;-2.86;76.57
9225;BME280;4647;48.072;11.616;2023-04-06T01:17:18;95454.28;;;-2.87;76.44
9225;BME280;4647;48.072;11.616;2023-04-06T01:19:46;95456.09;;;-3.00;76.97
9225;BME280;4647;48.072;11.616;2023-04-06T01:22:19;95437.22;;;-2.98;76.56
9225;BME280;4647;48.072;11.616;2023-04-06T01:24:47;95441.09;;;-2.96;76.80
9225;BME280;4647;48.072;11.616;2023-04-06T01:27:16;95439.59;;;-3.05;76.79
9225;BME280;4647;48.072;11.616;2023-04-06T01:29:45;95441.88;;;-2.95;76.58
9225;BME280;4647;48.072;11.616;2023-04-06T01:32:13;95442.78;;;-2.91;76.70
9225;BME280;4647;48.072;11.616;2023-04-06T01:34:42;95437.47;;;-2.83;76.28
9225;BME280;4647;48.072;11.616;2023-04-06T01:37:11;95439.78;;;-2.81;76.35
9225;BME280;4647;48.072;11.616;2023-04-06T01:39:42;95440.72;;;-2.86;76.48
9225;BME280;4647;48.072;11.616;2023-04-06T01:42:10;95432.63;;;-2.89;76.82
9225;BME280;4647;48.072;11.616;2023-04-06T01:44:39;95436.56;;;-2.95;76.74
9225;BME280;4647;48.072;11.616;2023-04-06T01:47:07;95420.41;;;-3.02;76.86
9225;BME280;4647;48.072;11.616;2023-04-06T01:49:36;95431.97;;;-3.07;77.32
9225;BME280;4647;48.072;11.616;2023-04-06T01:52:04;95429.78;;;-3.14;77.39
9225;BME280;4647;48.072;11.616;2023-04-06T01:54:33;95429.66;;;-3.17;77.60
9225;BME280;4647;48.072;11.616;2023-04-06T01:57:04;95427.94;;;-3.22;77.51
9225;BME280;4647;48.072;11.616;2023-04-06T01:59:33;95420.50;;;-3.28;77.74
9225;BME280;4647;48.072;11.616;2023-04-06T02:02:01;95428.72;;;-3.21;77.82
9225;BME280;4647;48.072;11.616;2023-04-06T02:04:30;95423.72;;;-3.14;77.40
9225;BME280;4647;48.072;11.616;2023-04-06T02:06:59;95415.75;;;-3.05;77.03
9225;BME280;4647;48.072;11.616;2023-04-06T02:09:27;95403.94;;;-3.17;76.98
9225;BME280;4647;48.072;11.616;2023-04-06T02:11:56;95423.19;;;-2.99;76.69
9225;BME280;4647;48.072;11.616;2023-04-06T02:14:27;95419.16;;;-3.05;76.83
9225;BME280;4647;48.072;11.616;2023-04-06T02:16:56;95425.38;;;-3.01;76.73
9225;BME280;4647;48.072;11.616;2023-04-06T02:19:24;95417.09;;;-2.99;76.60
9225;BME280;4647;48.072;11.616;2023-04-06T02:21:53;95403.75;;;-3.12;76.52
9225;BME280;4647;48.072;11.616;2023-04-06T02:24:22;95420.09;;;-3.10;76.84
9225;BME280;4647;48.072;11.616;2023-04-06T02:26:50;95423.81;;;-3.02;76.75
9225;BME280;4647;48.072;11.616;2023-04-06T02:29:19;95419.78;;;-3.08;76.89
9225;BME280;4647;48.072;11.616;2023-04-06T02:31:50;95412.84;;;-3.21;77.15
9225;BME280;4647;48.072;11.616;2023-04-06T02:34:18;95415.34;;;-3.25;77.44
9225;BME280;4647;48.072;11.616;2023-04-06T02:36:47;95406.16;;;-3.27;77.14
9225;BME280;4647;48.072;11.616;2023-04-06T02:39:16;95425.63;;;-3.23;77.30
9225;BME280;4647;48.072;11.616;2023-04-06T02:41:45;95412.06;;;-3.22;77.22
9225;BME280;4647;48.072;11.616;2023-04-06T02:44:13;95421.56;;;-3.21;77.16
9225;BME280;4647;48.072;11.616;2023-04-06T02:46:42;95409.81;;;-3.11;76.75
9225;BME280;4647;48.072;11.616;2023-04-06T02:49:14;95416.06;;;-3.07;76.72
9225;BME280;4647;48.072;11.616;2023-04-06T02:51:42;95413.16;;;-3.23;77.22
9225;BME280;4647;48.072;11.616;2023-04-06T02:54:11;95411.16;;;-3.26;77.23
9225;BME280;4647;48.072;11.616;2023-04-06T02:56:39;95408.03;;;-3.28;77.34
9225;BME280;4647;48.072;11.616;2023-04-06T02:59:08;95413.28;;;-3.19;77.18
9225;BME280;4647;48.072;11.616;2023-04-06T03:01:37;95404.56;;;-3.20;77.20
9225;BME280;4647;48.072;11.616;2023-04-06T03:04:05;95405.03;;;-3.18;77.16
9225;BME280;4647;48.072;11.616;2023-04-06T03:06:36;95410.19;;;-3.21;77.07
9225;BME280;4647;48.072;11.616;2023-04-06T03:09:06;95409.59;;;-3.27;77.34
9225;BME280;4647;48.072;11.616;2023-04-06T03:11:35;95412.25;;;-3.27;77.68
9225;BME280;4647;48.072;11.616;2023-04-06T03:14:03;95411.94;;;-3.25;77.39
9225;BME280;4647;48.072;11.616;2023-04-06T03:16:32;95398.88;;;-3.39;77.47
9225;BME280;4647;48.072;11.616;2023-04-06T03:19:00;95413.16;;;-3.23;77.15
9225;BME280;4647;48.072;11.616;2023-04-06T03:21:29;95415.81;;;-3.23;77.38
9225;BME280;4647;48.072;11.616;2023-04-06T03:24:00;95413.34;;;-3.28;77.30
9225;BME280;4647;48.072;11.616;2023-04-06T03:26:28;95418.13;;;-3.21;77.13
9225;BME280;4647;48.072;11.616;2023-04-06T03:28:57;95411.63;;;-3.32;77.57
9225;BME280;4647;48.072;11.616;2023-04-06T03:31:25;95409.59;;;-3.27;77.31
9225;BME280;4647;48.072;11.616;2023-04-06T03:33:54;95420.31;;;-3.23;77.18
9225;BME280;4647;48.072;11.616;2023-04-06T03:36:23;95421.28;;;-3.28;77.33
9225;BME280;4647;48.072;11.616;2023-04-06T03:38:51;95411.00;;;-3.29;77.41
9225;BME280;4647;48.072;11.616;2023-04-06T03:41:22;95412.84;;;-3.21;77.46
9225;BME280;4647;48.072;11.616;2023-04-06T03:43:52;95412.84;;;-3.21;77.24
9225;BME280;4647;48.072;11.616;2023-04-06T03:46:20;95415.22;;;-3.28;77.31
9225;BME280;4647;48.072;11.616;2023-04-06T03:48:49;95415.16;;;-3.20;76.85
9225;BME280;4647;48.072;11.616;2023-04-06T03:51:17;95416.63;;;-3.31;76.77
9225;BME280;4647;48.072;11.616;2023-04-06T03:53:46;95423.75;;;-3.31;77.22
9225;BME280;4647;48.072;11.616;2023-04-06T03:56:14;95423.03;;;-3.41;77.31
9225;BME280;4647;48.072;11.616;2023-04-06T03:58:45;95425.34;;;-3.39;77.30
9225;BME280;4647;48.072;11.616;2023-04-06T04:01:16;95427.28;;;-3.48;77.62
9225;BME280;4647;48.072;11.616;2023-04-06T04:03:45;95435.66;;;-3.46;77.82
9225;BME280;4647;48.072;11.616;2023-04-06T04:06:13;95428.78;;;-3.38;77.54
9225;BME280;4647;48.072;11.616;2023-04-06T04:08:42;95434.09;;;-3.38;77.62
9225;BME280;4647;48.072;11.616;2023-04-06T04:11:10;95432.81;;;-3.32;77.63
9225;BME280;4647;48.072;11.616;2023-04-06T04:13:38;95432.19;;;-3.29;77.61
9225;BME280;4647;48.072;11.616;2023-04-06T04:16:10;95443.72;;;-3.25;77.64
9225;BME280;4647;48.072;11.616;2023-04-06T04:18:38;95430.66;;;-3.30;77.82
9225;BME280;4647;48.072;11.616;2023-04-06T04:21:09;95438.72;;;-3.27;77.58
9225;BME280;4647;48.072;11.616;2023-04-06T04:23:37;95442.94;;;-3.26;77.41
9225;BME280;4647;48.072;11.616;2023-04-06T04:26:06;95441.38;;;-3.27;77.43
9225;BME280;4647;48.072;11.616;2023-04-06T04:28:34;95440.47;;;-3.31;77.03
9225;BME280;4647;48.072;11.616;2023-04-06T04:31:03;95440.75;;;-3.32;77.34
9225;BME280;4647;48.072;11.616;2023-04-06T04:33:35;95448.41;;;-3.31;77.43
9225;BME280;4647;48.072;11.616;2023-04-06T04:36:04;95440.94;;;-3.29;77.89
9225;BME280;4647;48.072;11.616;2023-04-06T04:38:32;95443.41;;;-3.24;77.43
9225;BME280;4647;48.072;11.616;2023-04-06T04:41:01;95441.06;;;-3.25;77.38
9225;BME280;4647;48.072;11.616;2023-04-06T04:43:29;95436.22;;;-3.23;77.57
9225;BME280;4647;48.072;11.616;2023-04-06T04:45:58;95439.94;;;-3.16;77.22
9225;BME280;4647;48.072;11.616;2023-04-06T04:48:27;95452.53;;;-3.13;77.55
9225;BME280;4647;48.072;11.616;2023-04-06T04:50:58;95433.66;;;-3.02;77.54
9225;BME280;4647;48.072;11.616;2023-04-06T04:53:26;95446.72;;;-2.68;76.73
9225;BME280;4647;48.072;11.616;2023-04-06T04:55:55;95450.06;;;-2.50;76.23
9225;BME280;4647;48.072;11.616;2023-04-06T04:58:23;95448.19;;;-2.29;74.70
9225;BME280;4647;48.072;11.616;2023-04-06T05:00:52;95447.88;;;-2.06;73.73
9225;BME280;4647;48.072;11.616;2023-04-06T05:03:22;95445.00;;;-1.80;72.02
9225;BME280;4647;48.072;11.616;2023-04-06T05:05:51;95446.00;;;-1.85;71.15
9225;BME280;4647;48.072;11.616;2023-04-06T05:08:22;95444.81;;;-1.96;71.80
9225;BME280;4647;48.072;11.616;2023-04-06T05:10:51;95440.56;;;-2.09;72.23
9225;BME280;4647;48.072;11.616;2023-04-06T05:13:20;95447.88;;;-2.06;72.29
9225;BME280;4647;48.072;11.616;2023-04-06T05:15:48;95433.81;;;-2.07;72.31
9225;BME280;4647;48.072;11.616;2023-04-06T05:18:17;95443.34;;;-2.06;72.19
9225;BME280;4647;48.072;11.616;2023-04-06T05:20:47;95445.44;;;-1.78;71.86
9225;BME280;4647;48.072;11.616;2023-04-06T05:23:17;95443.78;;;-1.50;71.28
9225;BME280;4647;48.072;11.616;2023-04-06T05:25:48;95450.91;;;-1.30;70.28
9225;BME280;4647;48.072;11.616;2023-04-06T05:28:17;95453.13;;;-1.32;69.97
9225;BME280;4647;48.072;11.616;2023-04-06T05:30:46;95448.09;;;-0.88;69.58
9225;BME280;4647;48.072;11.616;2023-04-06T05:33:14;95446.75;;;-0.57;67.83
9225;BME280;4647;48.072;11.616;2023-04-06T05:35:43;95444.53;;;-0.43;66.95
9225;BME280;4647;48.072;11.616;2023-04-06T05:38:11;95457.66;;;0.02;65.61
9225;BME280;4647;48.072;11.616;2023-04-06T05:40:40;95454.91;;;0.26;64.03
9225;BME280;4647;48.072;11.616;2023-04-06T05:43:11;95460.88;;;0.23;64.13
9225;BME280;4647;48.072;11.616;2023-04-06T05:45:40;95466.03;;;0.44;63.59
9225;BME280;4647;48.072;11.616;2023-04-06T05:48:08;95465.75;;;0.34;63.79
9225;BME280;4647;48.072;11.616;2023-04-06T05:50:37;95466.63;;;0.38;63.06
9225;BME280;4647;48.072;11.616;2023-04-06T05:53:06;95463.69;;;0.71;62.37
9225;BME280;4647;48.072;11.616;2023-04-06T05:55:34;95465.19;;;1.00;61.42
9225;BME280;4647;48.072;11.616;2023-04-06T05:58:03;95459.03;;;0.68;62.65
9225;BME280;4647;48.072;11.616;2023-04-06T06:00:34;95459.50;;;1.17;61.10
9225;BME280;4647;48.072;11.616;2023-04-06T06:03:03;95462.63;;;1.03;61.21
9225;BME280;4647;48.072;11.616;2023-04-06T06:05:33;95467.06;;;1.15;61.22
9225;BME280;4647;48.072;11.616;2023-04-06T06:08:02;95462.53;;;1.15;61.26
9225;BME280;4647;48.072;11.616;2023-04-06T06:10:30;95461.66;;;1.11;61.24
9225;BME280;4647;48.072;11.616;2023-04-06T06:12:59;95468.03;;;1.22;60.81
9225;BME280;4647;48.072;11.616;2023-04-06T06:15:27;95462.03;;;1.76;59.79
9225;BME280;4647;48.072;11.616;2023-04-06T06:17:59;95457.25;;;1.85;59.24
9225;BME280;4647;48.072;11.616;2023-04-06T06:20:27;95464.50;;;1.85;59.36
9225;BME280;4647;48.072;11.616;2023-04-06T06:22:56;95466.59;;;1.76;59.56
9225;BME280;4647;48.072;11.616;2023-04-06T06:25:24;95457.44;;;1.93;59.07
9225;BME280;4647;48.072;11.616;2023-04-06T06:27:53;95458.66;;;2.34;58.30
9225;BME280;4647;48.072;11.616;2023-04-06T06:30:21;95459.41;;;2.54;57.54
9225;BME280;4647;48.072;11.616;2023-04-06T06:32:50;95461.78;;;2.78;56.99
9225;BME280;4647;48.072;11.616;2023-04-06T06:35:21;95465.66;;;2.81;56.51
9225;BME280;4647;48.072;11.616;2023-04-06T06:37:50;95466.00;;;2.79;57.33
9225;BME280;4647;48.072;11.616;2023-04-06T06:40:18;95465.16;;;2.75;57.58
9225;BME280;4647;48.072;11.616;2023-04-06T06:42:49;95469.69;;;3.13;56.98
9225;BME280;4647;48.072;11.616;2023-04-06T06:45:18;95464.97;;;3.29;56.28
9225;BME280;4647;48.072;11.616;2023-04-06T06:47:47;95438.25;;;3.33;56.08
9225;BME280;4647;48.072;11.616;2023-04-06T06:50:15;95470.66;;;3.77;55.35
9225;BME280;4647;48.072;11.616;2023-04-06T06:52:46;95473.09;;;4.12;53.80
9225;BME280;4647;48.072;11.616;2023-04-06T06:55:15;95469.28;;;4.13;53.83
9225;BME280;4647;48.072;11.616;2023-04-06T06:57:44;95473.84;;;4.13;54.09
9225;BME280;4647;48.072;11.616;2023-04-06T07:00:13;95472.84;;;4.24;52.80
9225;BME280;4647;48.072;11.616;2023-04-06T07:02:42;95482.91;;;4.31;52.70
9225;BME280;4647;48.072;11.616;2023-04-06T07:05:11;95475.72;;;4.09;52.31
9225;BME280;4647;48.072;11.616;2023-04-06T07:07:39;95478.59;;;4.53;51.56
9225;BME280;4647;48.072;11.616;2023-04-06T07:10:11;95489.13;;;5.06;50.74
9225;BME280;4647;48.072;11.616;2023-04-06T07:12:39;95483.00;;;5.46;49.39
9225;BME280;4647;48.072;11.616;2023-04-06T07:15:09;95485.41;;;5.62;48.89
9225;BME280;4647;48.072;11.616;2023-04-06T07:17:37;95483.69;;;5.43;49.12
9225;BME280;4647;48.072;11.616;2023-04-06T07:20:07;95485.63;;;5.42;49.29
9225;BME280;4647;48.072;11.616;2023-04-06T07:22:37;95476.75;;;5.38;49.93
9225;BME280;4647;48.072;11.616;2023-04-06T07:25:07;95483.38;;;5.48;49.45
9225;BME280;4647;48.072;11.616;2023-04-06T07:27:38;95494.91;;;5.93;49.52
9225;BME280;4647;48.072;11.616;2023-04-06T07:30:08;95481.25;;;6.23;49.16
9225;BME280;4647;48.072;11.616;2023-04-06T07:32:36;95479.47;;;6.55;48.54
9225;BME280;4647;48.072;11.616;2023-04-06T07:35:05;95483.75;;;6.67;47.08
9225;BME280;4647;48.072;11.616;2023-04-06T07:37:36;95485.00;;;6.98;46.56
9225;BME280;4647;48.072;11.616;2023-04-06T07:40:06;95346.13;;;5.78;45.50
9225;BME280;4647;48.072;11.616;2023-04-06T07:42:38;95482.03;;;6.27;46.08
9225;BME280;4647;48.072;11.616;2023-04-06T07:45:07;95493.38;;;6.71;45.44
9225;BME280;4647;48.072;11.616;2023-04-06T07:47:36;95487.28;;;6.89;44.67
9225;BME280;4647;48.072;11.616;2023-04-06T07:50:05;95475.00;;;6.98;44.37
9225;BME280;4647;48.072;11.616;2023-04-06T07:52:34;95483.94;;;7.70;43.48
9225;BME280;4647;48.072;11.616;2023-04-06T07:55:03;95478.19;;;7.57;42.88
9225;BME280;4647;48.072;11.616;2023-04-06T07:57:31;95465.81;;;7.53;42.81
9225;BME280;4647;48.072;11.616;2023-04-06T08:00:04;95480.47;;;7.45;41.54
9225;BME280;4647;48.072;11.616;2023-04-06T08:02:34;95474.72;;;7.60;41.05
9225;BME280;4647;48.072;11.616;2023-04-06T08:05:03;95480.84;;;7.39;40.17
9225;BME280;4647;48.072;11.616;2023-04-06T08:07:32;95482.41;;;7.33;41.12
9225;BME280;4647;48.072;11.616;2023-04-06T08:10:01;95480.81;;;7.11;41.54
9225;BME280;4647;48.072;11.616;2023-04-06T08:12:29;95475.38;;;7.00;42.04
9225;BME280;4647;48.072;11.616;2023-04-06T08:14:58;95473.47;;;6.94;40.32
9225;BME280;4647;48.072;11.616;2023-04-06T08:17:31;95481.97;;;7.31;40.07
9225;BME280;4647;48.072;11.616;2023-04-06T08:20:00;95491.63;;;7.50;39.70
9225;BME280;4647;48.072;11.616;2023-04-06T08:22:29;95475.47;;;7.36;39.84
9225;BME280;4647;48.072;11.616;2023-04-06T08:24:57;95482.75;;;7.99;38.32
9225;BME280;4647;48.072;11.616;2023-04-06T08:27:26;95475.81;;;8.09;38.36
9225;BME280;4647;48.072;11.616;2023-04-06T08:29:55;95490.00;;;8.59;37.48
9225;BME280;4647;48.072;11.616;2023-04-06T08:32:24;95484.28;;;8.29;36.02
9225;BME280;4647;48.072;11.616;2023-04-06T08:34:56;95492.75;;;8.24;36.48
9225;BME280;4647;48.072;11.616;2023-04-06T08:37:24;95481.88;;;8.59;35.03
9225;BME280;4647;48.072;11.616;2023-04-06T08:39:53;95484.63;;;8.52;36.16
9225;BME280;4647;48.072;11.616;2023-04-06T08:42:25;95490.44;;;8.19;37.39
9225;BME280;4647;48.072;11.616;2023-04-06T08:44:55;95485.03;;;8.22;36.94
9225;BME280;4647;48.072;11.616;2023-04-06T08:47:23;95492.56;;;8.91;35.93
9225;BME280;4647;48.072;11.616;2023-04-06T08:49:52;95475.34;;;8.46;35.06
9225;BME280;4647;48.072;11.616;2023-04-06T08:52:25;95474.56;;;8.56;35.18
9225;BME280;4647;48.072;11.616;2023-04-06T08:54:55;95471.50;;;8.54;35.95
9225;BME280;4647;48.072;11.616;2023-04-06T08:57:23;95477.91;;;8.85;36.01
9225;BME280;4647;48.072;11.616;2023-04-06T08:59:54;95475.25;;;8.78;35.57
9225;BME280;4647;48.072;11.616;2023-04-06T09:02:23;95478.84;;;8.47;36.00
9225;BME280;4647;48.072;11.616;2023-04-06T09:04:53;95471.91;;;8.39;35.96
9225;BME280;4647;48.072;11.616;2023-04-06T09:07:25;95464.63;;;8.14;36.26
9225;BME280;4647;48.072;11.616;2023-04-06T09:09:54;95471.19;;;8.17;37.08
9225;BME280;4647;48.072;11.616;2023-04-06T09:12:24;95456.47;;;8.43;35.45
9225;BME280;4647;48.072;11.616;2023-04-06T09:14:53;95462.59;;;8.50;36.69
9225;BME280;4647;48.072;11.616;2023-04-06T09:17:22;95457.69;;;8.13;36.23
9225;BME280;4647;48.072;11.616;2023-04-06T09:19:51;95460.34;;;8.42;35.18
9225;BME280;4647;48.072;11.616;2023-04-06T09:22:20;95466.13;;;8.40;35.56
9225;BME280;4647;48.072;11.616;2023-04-06T09:24:53;95464.97;;;8.23;36.02
9225;BME280;4647;48.072;11.616;2023-04-06T09:27:30;95464.59;;;8.25;35.43
9225;BME280;4647;48.072;11.616;2023-04-06T09:30:09;95466.53;;;8.21;35.29
9225;BME280;4647;48.072;11.616;2023-04-06T09:32:47;95464.94;;;8.48;35.29
9225;BME280;4647;48.072;11.616;2023-04-06T09:35:16;95460.72;;;8.44;34.64
9225;BME280;4647;48.072;11.616;2023-04-06T09:37:46;95461.56;;;9.14;34.22
9225;BME280;4647;48.072;11.616;2023-04-06T09:40:18;95468.34;;;9.40;34.02
9225;BME280;4647;48.072;11.616;2023-04-06T09:42:48;95458.00;;;9.28;34.53
9225;BME280;4647;48.072;11.616;2023-04-06T09:45:17;95465.03;;;9.66;34.02
9225;BME280;4647;48.072;11.616;2023-04-06T09:47:46;95453.41;;;9.73;33.13
9225;BME280;4647;48.072;11.616;2023-04-06T09:50:15;95449.16;;;9.72;32.87
9225;BME280;4647;48.072;11.616;2023-04-06T09:52:47;95460.22;;;9.88;33.06
9225;BME280;4647;48.072;11.616;2023-04-06T09:55:23;95436.16;;;10.01;31.99
9225;BME280;4647;48.072;11.616;2023-04-06T09:57:57;95456.34;;;9.89;31.80
9225;BME280;4647;48.072;11.616;2023-04-06T10:00:27;95460.66;;;9.83;32.00
9225;BME280;4647;48.072;11.616;2023-04-06T10:02:59;95456.09;;;9.76;32.71
9225;BME280;4647;48.072;11.616;2023-04-06T10:05:37;95451.66;;;9.52;32.22
9225;BME280;4647;48.072;11.616;2023-04-06T10:08:08;95454.41;;;9.41;32.74
9225;BME280;4647;48.072;11.616;2023-04-06T10:10:40;95451.97;;;9.58;32.73
9225;BME280;4647;48.072;11.616;2023-04-06T10:13:10;95439.94;;;9.10;32.67
9225;BME280;4647;48.072;11.616;2023-04-06T10:15:39;95446.19;;;9.00;33.14
9225;BME280;4647;48.072;11.616;2023-04-06T10:18:08;95443.91;;;9.54;32.25
9225;BME280;4647;48.072;11.616;2023-04-06T10:20:41;95447.47;;;9.40;32.31
9225;BME280;4647;48.072;11.616;2023-04-06T10:23:13;95448.06;;;9.62;32.47
9225;BME280;4647;48.072;11.616;2023-04-06T10:25:55;95447.56;;;10.19;32.14
9225;BME280;4647;48.072;11.616;2023-04-06T10:28:25;95441.63;;;10.35;31.54
9225;BME280;4647;48.072;11.616;2023-04-06T10:30:57;95436.81;;;10.50;31.60
9225;BME280;4647;48.072;11.616;2023-04-06T10:33:27;95441.19;;;11.01;30.42
9225;BME280;4647;48.072;11.616;2023-04-06T10:35:56;95435.28;;;11.87;29.07
9225;BME280;4647;48.072;11.616;2023-04-06T10:38:34;95431.81;;;12.06;28.44
9225;BME280;4647;48.072;11.616;2023-04-06T10:41:09;95430.03;;;11.49;29.16
9225;BME280;4647;48.072;11.616;2023-04-06T10:43:39;95430.50;;;11.44;29.02
9225;BME280;4647;48.072;11.616;2023-04-06T10:46:09;95428.88;;;11.74;28.84
9225;BME280;4647;48.072;11.616;2023-04-06T10:48:38;95418.66;;;12.05;28.38
9225;BME280;4647;48.072;11.616;2023-04-06T10:51:10;95423.00;;;11.28;28.39
9225;BME280;4647;48.072;11.616;2023-04-06T10:53:40;95437.13;;;11.16;29.71
9225;BME280;4647;48.072;11.616;2023-04-06T10:56:13;95424.03;;;10.81;29.45
9225;BME280;4647;48.072;11.616;2023-04-06T10:58:45;95420.91;;;10.52;30.10
9225;BME280;4647;48.072;11.616;2023-04-06T11:01:15;95418.06;;;10.32;30.47
9225;BME280;4647;48.072;11.616;2023-04-06T11:03:44;95417.41;;;10.17;30.19
9225;BME280;4647;48.072;11.616;2023-04-06T11:06:20;95422.28;;;9.95;30.51
9225;BME280;4647;48.072;11.616;2023-04-06T11:08:49;95426.00;;;10.08;30.34
9225;BME280;4647;48.072;11.616;2023-04-06T11:11:22;95414.91;;;10.37;29.59
9225;BME280;4647;48.072;11.616;2023-04-06T11:13:53;95416.06;;;10.70;29.43
9225;BME280;4647;48.072;11.616;2023-04-06T11:16:23;95407.25;;;10.28;30.35
9225;BME280;4647;48.072;11.616;2023-04-06T11:18:53;95402.47;;;10.39;30.55
9225;BME280;4647;48.072;11.616;2023-04-06T11:21:32;95405.28;;;10.63;30.53
9225;BME280;4647;48.072;11.616;2023-04-06T11:24:09;95404.16;;;10.60;30.64
9225;BME280;4647;48.072;11.616;2023-04-06T11:26:42;95402.53;;;9.57;31.90
9225;BME280;4647;48.072;11.616;2023-04-06T11:29:15;95406.28;;;9.67;31.17
9225;BME280;4647;48.072;11.616;2023-04-06T11:31:46;95395.47;;;9.67;30.80
9225;BME280;4647;48.072;11.616;2023-04-06T11:34:17;95391.50;;;9.78;31.34
9225;BME280;4647;48.072;11.616;2023-04-06T11:36:48;95392.16;;;9.90;31.32
9225;BME280;4647;48.072;11.616;2023-04-06T11:39:19;95390.44;;;9.20;32.07
9225;BME280;4647;48.072;11.616;2023-04-06T11:41:52;95386.00;;;8.92;32.69
9225;BME280;4647;48.072;11.616;2023-04-06T11:44:30;95388.31;;;9.49;31.96
9225;BME280;4647;48.072;11.616;2023-04-06T11:47:00;95390.34;;;10.21;30.55
9225;BME280;4647;48.072;11.616;2023-04-06T11:49:30;95379.22;;;10.45;30.11
9225;BME280;4647;48.072;11.616;2023-04-06T11:51:59;95395.47;;;10.76;29.99
9225;BME280;4647;48.072;11.616;2023-04-06T11:54:32;95375.88;;;11.19;29.85
9225;BME280;4647;48.072;11.616;2023-04-06T11:57:05;95379.09;;;10.83;30.19
9225;BME280;4647;48.072;11.616;2023-04-06T11:59:34;95377.56;;;10.82;29.66
9225;BME280;4647;48.072;11.616;2023-04-06T12:02:02;95370.72;;;11.01;29.18
9225;BME280;4647;48.072;11.616;2023-04-06T12:04:31;95372.25;;;10.75;29.15
9225;BME280;4647;48.072;11.616;2023-04-06T12:07:00;95371.22;;;10.92;30.49
9225;BME280;4647;48.072;11.616;2023-04-06T12:09:29;95361.38;;;11.52;28.74
9225;BME280;4647;48.072;11.616;2023-04-06T12:12:00;95368.34;;;11.53;28.22
9225;BME280;4647;48.072;11.616;2023-04-06T12:14:31;95368.69;;;11.32;29.40
9225;BME280;4647;48.072;11.616;2023-04-06T12:17:00;95372.31;;;10.98;28.87
9225;BME280;4647;48.072;11.616;2023-04-06T12:19:28;95356.94;;;10.88;29.52
9225;BME280;4647;48.072;11.616;2023-04-06T12:21:57;95361.59;;;10.30;30.69
9225;BME280;4647;48.072;11.616;2023-04-06T12:24:25;95356.47;;;10.02;31.20
9225;BME280;4647;48.072;11.616;2023-04-06T12:26:55;95365.22;;;9.79;30.81
9225;BME280;4647;48.072;11.616;2023-04-06T12:29:24;95352.31;;;9.56;31.52
9225;BME280;4647;48.072;11.616;2023-04-06T12:31:55;95354.72;;;10.22;31.24
9225;BME280;4647;48.072;11.616;2023-04-06T12:34:25;95355.63;;;10.73;29.88
9225;BME280;4647;48.072;11.616;2023-04-06T12:36:54;95357.91;;;10.48;29.87
9225;BME280;4647;48.072;11.616;2023-04-06T12:39:22;95334.69;;;10.47;30.50
9225;BME280;4647;48.072;11.616;2023-04-06T12:41:52;95354.16;;;10.68;30.00
9225;BME280;4647;48.072;11.616;2023-04-06T12:44:21;95346.88;;;11.16;28.43
9225;BME280;4647;48.072;11.616;2023-04-06T12:46:50;95337.44;;;11.24;27.64
9225;BME280;4647;48.072;11.616;2023-04-06T12:49:21;95343.84;;;11.10;28.65
9225;BME280;4647;48.072;11.616;2023-04-06T12:51:50;95337.38;;;11.27;28.48
9225;BME280;4647;48.072;11.616;2023-04-06T12:54:18;95339.56;;;11.59;27.68
9225;BME280;4647;48.072;11.616;2023-04-06T12:56:47;95336.16;;;11.75;28.08
9225;BME280;4647;48.072;11.616;2023-04-06T12:59:16;95332.53;;;12.05;28.31
9225;BME280;4647;48.072;11.616;2023-04-06T13:01:46;95339.56;;;11.13;28.94
9225;BME280;4647;48.072;11.616;2023-04-06T13:04:14;95339.63;;;11.32;28.84
9225;BME280;4647;48.072;11.616;2023-04-06T13:06:46;95337.44;;;11.47;28.13
9225;BME280;4647;48.072;11.616;2023-04-06T13:09:14;95332.22;;;11.80;27.64
9225;BME280;4647;48.072;11.616;2023-04-06T13:11:43;95335.66;;;11.84;28.24
9225;BME280;4647;48.072;11.616;2023-04-06T13:14:11;95319.38;;;11.84;27.17
9225;BME280;4647;48.072;11.616;2023-04-06T13:16:40;95331.06;;;12.20;27.34
9225;BME280;4647;48.072;11.616;2023-04-06T13:19:09;95333.75;;;11.81;27.78
9225;BME280;4647;48.072;11.616;2023-04-06T13:21:39;95323.00;;;11.74;27.68
9225;BME280;4647;48.072;11.616;2023-04-06T13:24:10;95332.25;;;11.33;28.52
9225;BME280;4647;48.072;11.616;2023-04-06T13:26:39;95327.97;;;11.08;28.36